sensor_id;sensor_type;location;lat;lon;timestamp;pressure;altitude;pressure_sealevel;temperature;humidity
80509;BME280;69838;52.602;13.434;2023-05-10T00:00:18;100802.06;;;7.67;65.58
80509;BME280;69838;52.602;13.434;2023-05-10T00:01:03;100798.50;;;7.67;65.67
80509;BME280;69838;52.602;13.434;2023-05-10T00:01:49;100799.22;;;7.72;65.17
80509;BME280;69838;52.602;13.434;2023-05-10T00:02:37;100790.25;;;7.71;65.17
80509;BME280;69838;52.602;13.434;2023-05-10T00:03:23;100799.25;;;7.70;65.13
80509;BME280;69838;52.602;13.434;2023-05-10T00:04:09;100776.44;;;7.57;65.10
80509;BME280;69838;52.602;13.434;2023-05-10T00:04:54;100794.00;;;7.67;65.53
80509;BME280;69838;52.602;13.434;2023-05-10T00:05:40;100794.09;;;7.64;66.01
80509;BME280;69838;52.602;13.434;2023-05-10T00:06:25;100796.97;;;7.59;66.17
80509;BME280;69838;52.602;13.434;2023-05-10T00:07:10;100777.78;;;7.45;65.92
80509;BME280;69838;52.602;13.434;2023-05-10T00:07:56;100801.56;;;7.56;66.19
80509;BME280;69838;52.602;13.434;2023-05-10T00:08:41;100798.97;;;7.53;65.87
80509;BME280;69838;52.602;13.434;2023-05-10T00:09:26;100787.09;;;7.60;65.49
80509;BME280;69838;52.602;13.434;2023-05-10T00:10:12;100791.06;;;7.73;65.86
80509;BME280;69838;52.602;13.434;2023-05-10T00:10:57;100799.13;;;7.73;65.26
80509;BME280;69838;52.602;13.434;2023-05-10T00:11:42;100793.75;;;7.73;65.14
80509;BME280;69838;52.602;13.434;2023-05-10T00:12:28;100800.03;;;7.74;65.36
80509;BME280;69838;52.602;13.434;2023-05-10T00:13:13;100788.50;;;7.70;65.68
80509;BME280;69838;52.602;13.434;2023-05-10T00:13:58;100787.03;;;7.61;66.03
80509;BME280;69838;52.602;13.434;2023-05-10T00:14:44;100794.22;;;7.61;65.95
80509;BME280;69838;52.602;13.434;2023-05-10T00:15:29;100795.03;;;7.63;66.12
80509;BME280;69838;52.602;13.434;2023-05-10T00:16:15;100783.34;;;7.64;65.70
80509;BME280;69838;52.602;13.434;2023-05-10T00:17:01;100799.38;;;7.67;66.35
80509;BME280;69838;52.602;13.434;2023-05-10T00:17:46;100790.38;;;7.68;65.75
80509;BME280;69838;52.602;13.434;2023-05-10T00:18:31;100765.81;;;7.54;65.72
80509;BME280;69838;52.602;13.434;2023-05-10T00:19:16;100794.00;;;7.67;65.57
80509;BME280;69838;52.602;13.434;2023-05-10T00:20:02;100782.38;;;7.67;65.76
80509;BME280;69838;52.602;13.434;2023-05-10T00:20:49;100787.94;;;7.60;66.35
80509;BME280;69838;52.602;13.434;2023-05-10T00:21:35;100786.97;;;7.63;65.68
80509;BME280;69838;52.602;13.434;2023-05-10T00:22:20;100783.34;;;7.64;65.98
80509;BME280;69838;52.602;13.434;2023-05-10T00:23:05;100789.66;;;7.63;65.86
80509;BME280;69838;52.602;13.434;2023-05-10T00:23:51;100775.63;;;7.55;66.09
80509;BME280;69838;52.602;13.434;2023-05-10T00:24:39;100774.81;;;7.53;66.26
80509;BME280;69838;52.602;13.434;2023-05-10T00:25:24;100778.88;;;7.64;66.44
80509;BME280;69838;52.602;13.434;2023-05-10T00:26:10;100793.50;;;7.56;67.05
80509;BME280;69838;52.602;13.434;2023-05-10T00:26:55;100774.81;;;7.53;67.16
80509;BME280;69838;52.602;13.434;2023-05-10T00:27:40;100777.53;;;7.51;66.79
80509;BME280;69838;52.602;13.434;2023-05-10T00:28:27;100772.13;;;7.53;67.04
80509;BME280;69838;52.602;13.434;2023-05-10T00:29:13;100766.03;;;7.48;67.67
80509;BME280;69838;52.602;13.434;2023-05-10T00:29:58;100773.03;;;7.52;66.85
80509;BME280;69838;52.602;13.434;2023-05-10T00:30:43;100764.28;;;7.47;67.16
80509;BME280;69838;52.602;13.434;2023-05-10T00:31:29;100764.38;;;7.43;67.06
80509;BME280;69838;52.602;13.434;2023-05-10T00:32:14;100774.09;;;7.48;67.00
80509;BME280;69838;52.602;13.434;2023-05-10T00:32:59;100773.16;;;7.49;66.97
80509;BME280;69838;52.602;13.434;2023-05-10T00:33:45;100766.69;;;7.54;66.76
80509;BME280;69838;52.602;13.434;2023-05-10T00:34:30;100770.09;;;7.59;66.97
80509;BME280;69838;52.602;13.434;2023-05-10T00:35:16;100765.59;;;7.60;66.64
80509;BME280;69838;52.602;13.434;2023-05-10T00:36:01;100768.28;;;7.60;66.89
80509;BME280;69838;52.602;13.434;2023-05-10T00:36:46;100766.50;;;7.59;66.54
80509;BME280;69838;52.602;13.434;2023-05-10T00:37:31;100762.84;;;7.61;66.48
80509;BME280;69838;52.602;13.434;2023-05-10T00:38:17;100765.59;;;7.60;67.03
80509;BME280;69838;52.602;13.434;2023-05-10T00:39:02;100760.97;;;7.63;66.96
80509;BME280;69838;52.602;13.434;2023-05-10T00:39:48;100758.16;;;7.68;66.59
80509;BME280;69838;52.602;13.434;2023-05-10T00:40:35;100763.63;;;7.65;66.51
80509;BME280;69838;52.602;13.434;2023-05-10T00:41:20;100762.91;;;7.60;67.31
80509;BME280;69838;52.602;13.434;2023-05-10T00:42:06;100760.13;;;7.63;67.00
80509;BME280;69838;52.602;13.434;2023-05-10T00:42:52;100761.84;;;7.64;66.81
80509;BME280;69838;52.602;13.434;2023-05-10T00:43:37;100757.47;;;7.61;67.13
80509;BME280;69838;52.602;13.434;2023-05-10T00:44:22;100764.81;;;7.56;66.96
80509;BME280;69838;52.602;13.434;2023-05-10T00:45:07;100756.03;;;7.51;67.73
80509;BME280;69838;52.602;13.434;2023-05-10T00:45:53;100757.88;;;7.51;67.82
80509;BME280;69838;52.602;13.434;2023-05-10T00:46:39;100758.06;;;7.44;68.03
80509;BME280;69838;52.602;13.434;2023-05-10T00:47:24;100751.91;;;7.41;68.02
80509;BME280;69838;52.602;13.434;2023-05-10T00:48:09;100756.44;;;7.40;67.77
80509;BME280;69838;52.602;13.434;2023-05-10T00:48:55;100748.59;;;7.34;68.18
80509;BME280;69838;52.602;13.434;2023-05-10T00:49:41;100759.00;;;7.43;68.28
80509;BME280;69838;52.602;13.434;2023-05-10T00:50:26;100754.69;;;7.39;68.18
80509;BME280;69838;52.602;13.434;2023-05-10T00:51:13;100741.47;;;7.33;68.13
80509;BME280;69838;52.602;13.434;2023-05-10T00:51:58;100751.78;;;7.45;68.01
80509;BME280;69838;52.602;13.434;2023-05-10T00:52:43;100737.84;;;7.34;68.38
80509;BME280;69838;52.602;13.434;2023-05-10T00:53:31;100757.47;;;7.36;68.64
80509;BME280;69838;52.602;13.434;2023-05-10T00:54:17;100752.88;;;7.40;68.60
80509;BME280;69838;52.602;13.434;2023-05-10T00:55:06;100721.50;;;7.15;68.58
80509;BME280;69838;52.602;13.434;2023-05-10T00:55:51;100749.63;;;7.30;68.61
80509;BME280;69838;52.602;13.434;2023-05-10T00:56:37;100759.34;;;7.34;68.69
80509;BME280;69838;52.602;13.434;2023-05-10T00:57:23;100762.94;;;7.33;69.04
80509;BME280;69838;52.602;13.434;2023-05-10T00:58:08;100754.84;;;7.35;68.97
80509;BME280;69838;52.602;13.434;2023-05-10T00:58:53;100758.53;;;7.32;69.17
80509;BME280;69838;52.602;13.434;2023-05-10T00:59:39;100754.06;;;7.31;69.22
80509;BME280;69838;52.602;13.434;2023-05-10T01:00:24;100738.00;;;7.30;69.34
80509;BME280;69838;52.602;13.434;2023-05-10T01:01:10;100755.84;;;7.32;69.11
80509;BME280;69838;52.602;13.434;2023-05-10T01:01:57;100745.09;;;7.32;69.32
80509;BME280;69838;52.602;13.434;2023-05-10T01:02:43;100728.31;;;7.25;68.76
80509;BME280;69838;52.602;13.434;2023-05-10T01:03:28;100755.84;;;7.32;69.09
80509;BME280;69838;52.602;13.434;2023-05-10T01:04:14;100734.44;;;7.29;68.93
80509;BME280;69838;52.602;13.434;2023-05-10T01:05:01;100750.56;;;7.29;69.21
80509;BME280;69838;52.602;13.434;2023-05-10T01:05:48;100746.13;;;7.28;68.86
80509;BME280;69838;52.602;13.434;2023-05-10T01:06:33;100738.22;;;7.23;69.27
80509;BME280;69838;52.602;13.434;2023-05-10T01:07:19;100742.66;;;7.24;69.35
80509;BME280;69838;52.602;13.434;2023-05-10T01:08:04;100729.22;;;7.24;69.40
80509;BME280;69838;52.602;13.434;2023-05-10T01:08:49;100747.16;;;7.24;69.95
80509;BME280;69838;52.602;13.434;2023-05-10T01:09:35;100732.16;;;7.18;69.41
80509;BME280;69838;52.602;13.434;2023-05-10T01:10:20;100739.34;;;7.18;69.74
80509;BME280;69838;52.602;13.434;2023-05-10T01:11:06;100740.25;;;7.17;69.95
80509;BME280;69838;52.602;13.434;2023-05-10T01:11:51;100746.38;;;7.20;69.74
80509;BME280;69838;52.602;13.434;2023-05-10T01:12:38;100736.50;;;7.21;69.40
80509;BME280;69838;52.602;13.434;2023-05-10T01:13:36;100727.22;;;7.31;68.84
80509;BME280;69838;52.602;13.434;2023-05-10T01:14:22;100720.31;;;7.24;69.16
80509;BME280;69838;52.602;13.434;2023-05-10T01:15:09;100727.16;;;7.33;68.98
80509;BME280;69838;52.602;13.434;2023-05-10T01:15:56;100729.91;;;7.31;69.30
80509;BME280;69838;52.602;13.434;2023-05-10T01:16:41;100741.47;;;7.33;69.33
80509;BME280;69838;52.602;13.434;2023-05-10T01:17:27;100730.00;;;7.28;69.72
80509;BME280;69838;52.602;13.434;2023-05-10T01:18:12;100730.94;;;7.27;69.44
80509;BME280;69838;52.602;13.434;2023-05-10T01:18:58;100733.69;;;7.25;69.38
80509;BME280;69838;52.602;13.434;2023-05-10T01:19:43;100734.44;;;7.29;69.17
80509;BME280;69838;52.602;13.434;2023-05-10T01:20:35;100729.19;;;7.26;69.17
80509;BME280;69838;52.602;13.434;2023-05-10T01:21:47;100731.00;;;7.25;69.84
80509;BME280;69838;52.602;13.434;2023-05-10T01:25:28;100725.59;;;7.27;69.63
80509;BME280;69838;52.602;13.434;2023-05-10T01:27:25;100732.91;;;7.22;69.61
80509;BME280;69838;52.602;13.434;2023-05-10T01:29:50;100721.13;;;7.26;69.25
80509;BME280;69838;52.602;13.434;2023-05-10T01:31:03;100718.34;;;7.29;69.19
80509;BME280;69838;52.602;13.434;2023-05-10T01:33:54;100696.38;;;7.18;69.05
80509;BME280;69838;52.602;13.434;2023-05-10T01:35:43;100727.97;;;7.35;69.59
80509;BME280;69838;52.602;13.434;2023-05-10T01:36:37;100728.97;;;7.32;69.24
80509;BME280;69838;52.602;13.434;2023-05-10T01:37:42;100699.88;;;7.20;69.66
80509;BME280;69838;52.602;13.434;2023-05-10T01:38:49;100698.59;;;7.05;69.87
80509;BME280;69838;52.602;13.434;2023-05-10T01:39:47;100716.72;;;7.25;69.59
80509;BME280;69838;52.602;13.434;2023-05-10T01:42:09;100720.06;;;7.30;69.27
80509;BME280;69838;52.602;13.434;2023-05-10T01:43:01;100718.34;;;7.29;69.70
80509;BME280;69838;52.602;13.434;2023-05-10T01:43:57;100710.28;;;7.29;69.54
80509;BME280;69838;52.602;13.434;2023-05-10T01:46:16;100681.41;;;7.11;69.20
80509;BME280;69838;52.602;13.434;2023-05-10T01:47:10;100704.97;;;7.28;69.08
80509;BME280;69838;52.602;13.434;2023-05-10T01:48:07;100717.56;;;7.25;69.49
80509;BME280;69838;52.602;13.434;2023-05-10T01:48:55;100715.09;;;7.19;70.02
80509;BME280;69838;52.602;13.434;2023-05-10T01:49:52;100712.72;;;7.10;69.96
80509;BME280;69838;52.602;13.434;2023-05-10T01:50:43;100715.38;;;7.12;70.00
80509;BME280;69838;52.602;13.434;2023-05-10T01:51:33;100702.41;;;6.98;70.30
80509;BME280;69838;52.602;13.434;2023-05-10T01:52:32;100713.81;;;7.04;70.33
80509;BME280;69838;52.602;13.434;2023-05-10T01:53:18;100716.50;;;7.04;70.57
80509;BME280;69838;52.602;13.434;2023-05-10T01:54:05;100717.56;;;7.00;70.47
80509;BME280;69838;52.602;13.434;2023-05-10T01:55:00;100701.75;;;6.91;70.36
80509;BME280;69838;52.602;13.434;2023-05-10T01:55:49;100725.13;;;7.14;70.36
80509;BME280;69838;52.602;13.434;2023-05-10T01:56:37;100711.44;;;7.22;70.25
80509;BME280;69838;52.602;13.434;2023-05-10T01:57:25;100707.88;;;7.21;70.00
80509;BME280;69838;52.602;13.434;2023-05-10T01:58:14;100712.41;;;7.19;69.81
80509;BME280;69838;52.602;13.434;2023-05-10T01:59:01;100707.78;;;7.23;69.35
80509;BME280;69838;52.602;13.434;2023-05-10T01:59:50;100691.81;;;7.20;68.82
80509;BME280;69838;52.602;13.434;2023-05-10T02:00:37;100705.63;;;7.34;69.29
80509;BME280;69838;52.602;13.434;2023-05-10T02:01:25;100705.41;;;7.40;68.57
80509;BME280;69838;52.602;13.434;2023-05-10T02:02:12;100708.09;;;7.40;68.58
80509;BME280;69838;52.602;13.434;2023-05-10T02:03:04;100687.03;;;7.28;68.70
80509;BME280;69838;52.602;13.434;2023-05-10T02:03:51;100703.53;;;7.42;68.69
80509;BME280;69838;52.602;13.434;2023-05-10T02:04:37;100700.03;;;7.40;69.15
80509;BME280;69838;52.602;13.434;2023-05-10T02:05:24;100685.00;;;7.35;68.85
80509;BME280;69838;52.602;13.434;2023-05-10T02:06:10;100695.81;;;7.33;68.71
80509;BME280;69838;52.602;13.434;2023-05-10T02:06:57;100701.91;;;7.38;69.29
80509;BME280;69838;52.602;13.434;2023-05-10T02:07:43;100701.28;;;7.30;68.97
80509;BME280;69838;52.602;13.434;2023-05-10T02:08:30;100710.22;;;7.31;69.64
80509;BME280;69838;52.602;13.434;2023-05-10T02:09:16;100706.56;;;7.33;69.17
80509;BME280;69838;52.602;13.434;2023-05-10T02:10:04;100702.00;;;7.35;68.82
80509;BME280;69838;52.602;13.434;2023-05-10T02:10:52;100711.00;;;7.34;69.71
80509;BME280;69838;52.602;13.434;2023-05-10T02:11:39;100710.56;;;7.47;68.97
80509;BME280;69838;52.602;13.434;2023-05-10T02:12:26;100714.16;;;7.45;68.68
80509;BME280;69838;52.602;13.434;2023-05-10T02:13:13;100707.25;;;7.38;68.83
80509;BME280;69838;52.602;13.434;2023-05-10T02:14:01;100703.44;;;7.45;68.43
80509;BME280;69838;52.602;13.434;2023-05-10T02:14:47;100706.94;;;7.48;68.54
80509;BME280;69838;52.602;13.434;2023-05-10T02:15:33;100702.56;;;7.45;68.63
80509;BME280;69838;52.602;13.434;2023-05-10T02:16:21;100700.69;;;7.47;68.17
80509;BME280;69838;52.602;13.434;2023-05-10T02:17:09;100712.41;;;7.44;68.29
80509;BME280;69838;52.602;13.434;2023-05-10T02:17:55;100685.34;;;7.25;68.67
80509;BME280;69838;52.602;13.434;2023-05-10T02:18:42;100702.81;;;7.37;69.04
80509;BME280;69838;52.602;13.434;2023-05-10T02:19:28;100703.72;;;7.38;68.56
80509;BME280;69838;52.602;13.434;2023-05-10T02:20:16;100685.31;;;7.27;68.43
80509;BME280;69838;52.602;13.434;2023-05-10T02:21:03;100695.03;;;7.30;68.58
80509;BME280;69838;52.602;13.434;2023-05-10T02:21:49;100691.69;;;7.23;68.96
80509;BME280;69838;52.602;13.434;2023-05-10T02:22:36;100704.03;;;7.29;69.01
80509;BME280;69838;52.602;13.434;2023-05-10T02:23:23;100698.72;;;7.27;68.63
80509;BME280;69838;52.602;13.434;2023-05-10T02:24:11;100695.13;;;7.26;69.56
80509;BME280;69838;52.602;13.434;2023-05-10T02:24:58;100681.41;;;7.11;69.01
80509;BME280;69838;52.602;13.434;2023-05-10T02:25:44;100706.13;;;7.20;69.33
80509;BME280;69838;52.602;13.434;2023-05-10T02:26:32;100698.06;;;7.20;69.23
80509;BME280;69838;52.602;13.434;2023-05-10T02:27:19;100695.44;;;7.19;69.41
80509;BME280;69838;52.602;13.434;2023-05-10T02:28:06;100697.06;;;7.23;69.09
80509;BME280;69838;52.602;13.434;2023-05-10T02:28:53;100690.06;;;7.19;69.46
80509;BME280;69838;52.602;13.434;2023-05-10T02:29:39;100698.34;;;7.13;69.96
80509;BME280;69838;52.602;13.434;2023-05-10T02:30:25;100701.56;;;7.22;69.30
80509;BME280;69838;52.602;13.434;2023-05-10T02:31:12;100672.06;;;6.96;69.74
80509;BME280;69838;52.602;13.434;2023-05-10T02:31:59;100700.59;;;7.25;69.36
80509;BME280;69838;52.602;13.434;2023-05-10T02:32:45;100689.94;;;7.22;68.78
80509;BME280;69838;52.602;13.434;2023-05-10T02:33:32;100693.56;;;7.21;68.83
80509;BME280;69838;52.602;13.434;2023-05-10T02:34:21;100701.63;;;7.21;69.24
80509;BME280;69838;52.602;13.434;2023-05-10T02:35:08;100691.81;;;7.20;69.16
80509;BME280;69838;52.602;13.434;2023-05-10T02:35:55;100689.94;;;7.22;69.11
80509;BME280;69838;52.602;13.434;2023-05-10T02:36:41;100668.09;;;7.07;68.88
80509;BME280;69838;52.602;13.434;2023-05-10T02:37:27;100695.22;;;7.25;69.02
80509;BME280;69838;52.602;13.434;2023-05-10T02:38:14;100672.63;;;7.05;69.10
80509;BME280;69838;52.602;13.434;2023-05-10T02:39:01;100696.53;;;7.13;69.13
80509;BME280;69838;52.602;13.434;2023-05-10T02:39:47;100693.16;;;7.06;69.48
80509;BME280;69838;52.602;13.434;2023-05-10T02:40:35;100695.44;;;7.19;69.44
80509;BME280;69838;52.602;13.434;2023-05-10T02:41:24;100675.31;;;7.05;69.03
80509;BME280;69838;52.602;13.434;2023-05-10T02:42:16;100633.38;;;6.76;68.91
80509;BME280;69838;52.602;13.434;2023-05-10T02:43:02;100670.25;;;6.96;69.67
80509;BME280;69838;52.602;13.434;2023-05-10T02:43:50;100673.84;;;6.97;69.34
80509;BME280;69838;52.602;13.434;2023-05-10T02:44:36;100688.53;;;7.12;69.29
80509;BME280;69838;52.602;13.434;2023-05-10T02:45:27;100699.25;;;7.12;69.44
80509;BME280;69838;52.602;13.434;2023-05-10T02:46:13;100693.88;;;7.12;69.51
80509;BME280;69838;52.602;13.434;2023-05-10T02:46:58;100693.78;;;7.15;68.96
80509;BME280;69838;52.602;13.434;2023-05-10T02:47:43;100689.50;;;7.09;69.36
80509;BME280;69838;52.602;13.434;2023-05-10T02:48:29;100688.84;;;7.02;69.38
80509;BME280;69838;52.602;13.434;2023-05-10T02:49:15;100694.97;;;7.06;69.92
80509;BME280;69838;52.602;13.434;2023-05-10T02:50:00;100693.00;;;7.11;69.75
80509;BME280;69838;52.602;13.434;2023-05-10T02:50:47;100672.75;;;7.02;69.56
80509;BME280;69838;52.602;13.434;2023-05-10T02:51:42;100692.91;;;7.14;68.98
80509;BME280;69838;52.602;13.434;2023-05-10T02:52:34;100674.38;;;7.06;68.96
80509;BME280;69838;52.602;13.434;2023-05-10T02:53:30;100694.69;;;7.14;69.09
80509;BME280;69838;52.602;13.434;2023-05-10T02:54:24;100696.38;;;7.18;68.89
80509;BME280;69838;52.602;13.434;2023-05-10T02:55:14;100696.44;;;7.16;69.04
80509;BME280;69838;52.602;13.434;2023-05-10T02:56:10;100694.75;;;7.12;69.52
80509;BME280;69838;52.602;13.434;2023-05-10T02:56:58;100699.06;;;7.18;68.62
80509;BME280;69838;52.602;13.434;2023-05-10T02:57:54;100689.34;;;7.14;68.81
80509;BME280;69838;52.602;13.434;2023-05-10T02:58:41;100690.81;;;7.22;68.07
80509;BME280;69838;52.602;13.434;2023-05-10T02:59:26;100688.19;;;7.21;68.49
80509;BME280;69838;52.602;13.434;2023-05-10T03:00:12;100699.81;;;7.21;68.63
80509;BME280;69838;52.602;13.434;2023-05-10T03:00:57;100669.97;;;7.05;68.80
80509;BME280;69838;52.602;13.434;2023-05-10T03:01:42;100693.47;;;7.24;68.21
80509;BME280;69838;52.602;13.434;2023-05-10T03:02:28;100689.94;;;7.22;68.25
80509;BME280;69838;52.602;13.434;2023-05-10T03:03:15;100695.31;;;7.22;68.62
80509;BME280;69838;52.602;13.434;2023-05-10T03:04:00;100690.81;;;7.22;68.08
80509;BME280;69838;52.602;13.434;2023-05-10T03:04:46;100686.56;;;7.17;68.43
80509;BME280;69838;52.602;13.434;2023-05-10T03:05:31;100695.28;;;7.23;68.16
80509;BME280;69838;52.602;13.434;2023-05-10T03:06:16;100691.53;;;7.28;67.97
80509;BME280;69838;52.602;13.434;2023-05-10T03:07:02;100692.41;;;7.28;68.15
80509;BME280;69838;52.602;13.434;2023-05-10T03:07:48;100675.00;;;7.15;68.27
80509;BME280;69838;52.602;13.434;2023-05-10T03:08:33;100681.91;;;7.22;68.18
80509;BME280;69838;52.602;13.434;2023-05-10T03:09:19;100695.09;;;7.28;68.60
80509;BME280;69838;52.602;13.434;2023-05-10T03:10:05;100694.88;;;7.34;67.07
80509;BME280;69838;52.602;13.434;2023-05-10T03:11:05;100696.41;;;7.41;67.25
80509;BME280;69838;52.602;13.434;2023-05-10T03:13:31;100690.09;;;7.42;67.40
80509;BME280;69838;52.602;13.434;2023-05-10T03:14:49;100693.94;;;7.35;67.32
80509;BME280;69838;52.602;13.434;2023-05-10T03:15:59;100688.69;;;7.32;66.84
80509;BME280;69838;52.602;13.434;2023-05-10T03:16:56;100663.91;;;7.24;66.96
80509;BME280;69838;52.602;13.434;2023-05-10T03:17:46;100692.78;;;7.42;67.42
80509;BME280;69838;52.602;13.434;2023-05-10T03:18:44;100682.38;;;7.33;67.33
80509;BME280;69838;52.602;13.434;2023-05-10T03:19:48;100680.50;;;7.35;67.13
80509;BME280;69838;52.602;13.434;2023-05-10T03:20:41;100687.66;;;7.36;67.25
80509;BME280;69838;52.602;13.434;2023-05-10T03:21:28;100693.94;;;7.35;67.32
80509;BME280;69838;52.602;13.434;2023-05-10T03:22:19;100671.88;;;7.27;67.47
80509;BME280;69838;52.602;13.434;2023-05-10T03:23:13;100691.38;;;7.32;67.43
80509;BME280;69838;52.602;13.434;2023-05-10T03:24:07;100678.88;;;7.31;67.07
80509;BME280;69838;52.602;13.434;2023-05-10T03:24:56;100689.53;;;7.34;66.91
80509;BME280;69838;52.602;13.434;2023-05-10T03:25:46;100689.63;;;7.31;67.55
80509;BME280;69838;52.602;13.434;2023-05-10T03:26:33;100678.88;;;7.31;67.20
80509;BME280;69838;52.602;13.434;2023-05-10T03:27:20;100682.66;;;7.25;68.01
80509;BME280;69838;52.602;13.434;2023-05-10T03:28:06;100682.63;;;7.27;67.19
80509;BME280;69838;52.602;13.434;2023-05-10T03:28:52;100682.19;;;7.39;67.16
80509;BME280;69838;52.602;13.434;2023-05-10T03:29:38;100685.69;;;7.41;66.87
80509;BME280;69838;52.602;13.434;2023-05-10T03:30:24;100669.13;;;7.29;66.96
80509;BME280;69838;52.602;13.434;2023-05-10T03:31:10;100674.94;;;7.41;66.56
80509;BME280;69838;52.602;13.434;2023-05-10T03:31:59;100668.25;;;7.28;67.08
80509;BME280;69838;52.602;13.434;2023-05-10T03:32:45;100687.75;;;7.33;67.67
80509;BME280;69838;52.602;13.434;2023-05-10T03:33:30;100687.84;;;7.30;67.45
80509;BME280;69838;52.602;13.434;2023-05-10T03:34:16;100680.75;;;7.29;67.13
80509;BME280;69838;52.602;13.434;2023-05-10T03:35:08;100686.88;;;7.33;67.21
80509;BME280;69838;52.602;13.434;2023-05-10T03:35:54;100685.00;;;7.35;67.04
80509;BME280;69838;52.602;13.434;2023-05-10T03:36:39;100681.16;;;7.42;66.71
80509;BME280;69838;52.602;13.434;2023-05-10T03:37:25;100686.44;;;7.45;66.97
80509;BME280;69838;52.602;13.434;2023-05-10T03:38:10;100680.31;;;7.41;66.69
80509;BME280;69838;52.602;13.434;2023-05-10T03:38:55;100685.63;;;7.43;66.47
80509;BME280;69838;52.602;13.434;2023-05-10T03:39:40;100678.44;;;7.43;66.89
80509;BME280;69838;52.602;13.434;2023-05-10T03:40:26;100652.38;;;7.22;66.94
80509;BME280;69838;52.602;13.434;2023-05-10T03:41:13;100671.63;;;7.33;67.86
80509;BME280;69838;52.602;13.434;2023-05-10T03:41:59;100673.28;;;7.37;66.17
80509;BME280;69838;52.602;13.434;2023-05-10T03:42:44;100678.44;;;7.43;66.52
80509;BME280;69838;52.602;13.434;2023-05-10T03:43:29;100676.63;;;7.44;66.76
80509;BME280;69838;52.602;13.434;2023-05-10T03:44:14;100670.47;;;7.40;66.45
80509;BME280;69838;52.602;13.434;2023-05-10T03:45:00;100686.97;;;7.55;65.95
80509;BME280;69838;52.602;13.434;2023-05-10T03:45:45;100689.66;;;7.55;66.84
80509;BME280;69838;52.602;13.434;2023-05-10T03:46:30;100675.75;;;7.43;66.25
80509;BME280;69838;52.602;13.434;2023-05-10T03:47:16;100650.25;;;7.30;66.11
80509;BME280;69838;52.602;13.434;2023-05-10T03:48:01;100672.97;;;7.47;65.92
80509;BME280;69838;52.602;13.434;2023-05-10T03:48:46;100681.84;;;7.49;66.72
80509;BME280;69838;52.602;13.434;2023-05-10T03:49:31;100650.16;;;7.33;66.22
80509;BME280;69838;52.602;13.434;2023-05-10T03:50:17;100669.56;;;7.41;67.03
80509;BME280;69838;52.602;13.434;2023-05-10T03:51:03;100672.97;;;7.47;66.81
80509;BME280;69838;52.602;13.434;2023-05-10T03:51:48;100681.03;;;7.47;66.99
80509;BME280;69838;52.602;13.434;2023-05-10T03:52:33;100681.94;;;7.45;66.18
80509;BME280;69838;52.602;13.434;2023-05-10T03:53:18;100683.38;;;7.56;65.83
80509;BME280;69838;52.602;13.434;2023-05-10T03:54:04;100673.44;;;7.58;65.77
80509;BME280;69838;52.602;13.434;2023-05-10T03:54:49;100676.88;;;7.61;65.83
80509;BME280;69838;52.602;13.434;2023-05-10T03:55:34;100672.47;;;7.59;66.38
80509;BME280;69838;52.602;13.434;2023-05-10T03:56:21;100676.13;;;7.58;65.85
80509;BME280;69838;52.602;13.434;2023-05-10T03:57:06;100680.47;;;7.60;65.75
80509;BME280;69838;52.602;13.434;2023-05-10T03:57:51;100662.78;;;7.55;65.65
80509;BME280;69838;52.602;13.434;2023-05-10T03:58:38;100679.38;;;7.66;65.58
80509;BME280;69838;52.602;13.434;2023-05-10T03:59:24;100673.25;;;7.62;65.70
80509;BME280;69838;52.602;13.434;2023-05-10T04:00:09;100656.72;;;7.50;66.41
80509;BME280;69838;52.602;13.434;2023-05-10T04:00:55;100681.13;;;7.67;65.22
80509;BME280;69838;52.602;13.434;2023-05-10T04:01:40;100675.06;;;7.62;65.71
80509;BME280;69838;52.602;13.434;2023-05-10T04:02:25;100680.47;;;7.60;66.31
80509;BME280;69838;52.602;13.434;2023-05-10T04:03:11;100682.16;;;7.64;65.67
80509;BME280;69838;52.602;13.434;2023-05-10T04:03:56;100677.53;;;7.68;65.65
80509;BME280;69838;52.602;13.434;2023-05-10T04:04:42;100690.06;;;7.68;65.91
80509;BME280;69838;52.602;13.434;2023-05-10T04:05:27;100681.03;;;7.70;65.94
80509;BME280;69838;52.602;13.434;2023-05-10T04:06:12;100678.50;;;7.65;65.94
80509;BME280;69838;52.602;13.434;2023-05-10T04:06:57;100677.53;;;7.68;65.70
80509;BME280;69838;52.602;13.434;2023-05-10T04:07:43;100682.91;;;7.68;65.65
80509;BME280;69838;52.602;13.434;2023-05-10T04:08:29;100668.00;;;7.59;66.19
80509;BME280;69838;52.602;13.434;2023-05-10T04:09:14;100680.28;;;7.67;65.77
80509;BME280;69838;52.602;13.434;2023-05-10T04:10:00;100681.94;;;7.69;65.39
80509;BME280;69838;52.602;13.434;2023-05-10T04:10:45;100680.13;;;7.70;65.69
80509;BME280;69838;52.602;13.434;2023-05-10T04:11:30;100674.00;;;7.66;65.16
80509;BME280;69838;52.602;13.434;2023-05-10T04:12:15;100670.28;;;7.70;65.32
80509;BME280;69838;52.602;13.434;2023-05-10T04:13:01;100671.91;;;7.74;65.31
80509;BME280;69838;52.602;13.434;2023-05-10T04:13:46;100654.38;;;7.64;65.70
80509;BME280;69838;52.602;13.434;2023-05-10T04:14:31;100655.78;;;7.74;64.53
80509;BME280;69838;52.602;13.434;2023-05-10T04:15:17;100678.66;;;7.86;64.50
80509;BME280;69838;52.602;13.434;2023-05-10T04:16:02;100678.69;;;7.84;65.22
80509;BME280;69838;52.602;13.434;2023-05-10T04:16:47;100672.50;;;7.82;64.61
80509;BME280;69838;52.602;13.434;2023-05-10T04:17:33;100670.56;;;7.86;65.03
80509;BME280;69838;52.602;13.434;2023-05-10T04:18:18;100661.16;;;7.74;65.46
80509;BME280;69838;52.602;13.434;2023-05-10T04:19:03;100671.91;;;7.74;65.82
80509;BME280;69838;52.602;13.434;2023-05-10T04:19:49;100663.78;;;7.76;65.70
80509;BME280;69838;52.602;13.434;2023-05-10T04:20:34;100680.78;;;7.76;66.31
80509;BME280;69838;52.602;13.434;2023-05-10T04:21:19;100664.91;;;7.70;66.58